createdAt,value
2022-10-09T00:00:26.142Z,5.56
2022-10-09T00:02:54.205Z,5.59
2022-10-09T00:05:23.775Z,5.61
2022-10-09T00:07:52.889Z,5.49
2022-10-09T00:10:20.924Z,5.57
2022-10-09T00:12:49.559Z,5.41
2022-10-09T00:15:17.570Z,5.18
2022-10-09T00:17:45.602Z,4.99
2022-10-09T00:20:13.592Z,5.37
2022-10-09T00:22:41.175Z,5.02
2022-10-09T00:25:11.194Z,5.10
2022-10-09T00:27:39.785Z,5.22
2022-10-09T00:30:09.404Z,5.06
2022-10-09T00:32:37.363Z,4.89
2022-10-09T00:35:05.671Z,4.95
2022-10-09T00:37:33.493Z,5.10
2022-10-09T00:40:01.966Z,4.97
2022-10-09T00:42:31.162Z,5.17
2022-10-09T00:45:01.881Z,4.89
2022-10-09T00:47:33.204Z,4.89
2022-10-09T00:50:06.539Z,4.77
2022-10-09T00:52:34.685Z,4.99
2022-10-09T00:55:03.659Z,4.59
2022-10-09T00:57:34.696Z,4.84
2022-10-09T01:00:07.026Z,4.72
2022-10-09T01:02:34.684Z,4.66
2022-10-09T01:05:02.390Z,4.63
2022-10-09T01:07:36.440Z,4.65
2022-10-09T01:10:13.877Z,4.91
2022-10-09T01:12:48.810Z,5.08
2022-10-09T01:15:19.355Z,5.02
2022-10-09T01:17:54.791Z,5.11
2022-10-09T01:20:46.195Z,5.06
2022-10-09T01:23:38.621Z,4.99
2022-10-09T01:26:35.464Z,5.07
2022-10-09T01:29:07.881Z,5.18
2022-10-09T01:31:40.239Z,5.25
2022-10-09T01:34:08.799Z,5.24
2022-10-09T01:36:39.684Z,5.29
2022-10-09T01:39:10.056Z,5.23
2022-10-09T01:41:39.191Z,4.96
2022-10-09T01:44:18.503Z,5.25
2022-10-09T01:46:46.706Z,5.20
2022-10-09T01:49:21.836Z,5.12
2022-10-09T01:51:53.765Z,5.16
2022-10-09T01:54:31.015Z,5.05
2022-10-09T01:57:01.231Z,5.05
2022-10-09T01:59:31.305Z,4.94
2022-10-09T02:02:00.666Z,5.04
2022-10-09T02:04:28.950Z,5.12
2022-10-09T02:06:57.410Z,5.08
2022-10-09T02:09:25.699Z,5.04
2022-10-09T02:11:55.905Z,5.05
2022-10-09T02:14:24.153Z,5.04
2022-10-09T02:16:58.425Z,5.01
2022-10-09T02:19:31.998Z,4.98
2022-10-09T02:22:02.462Z,5.01
2022-10-09T02:24:30.621Z,4.71
2022-10-09T02:26:59.538Z,4.56
2022-10-09T02:29:27.610Z,4.39
2022-10-09T02:31:56.880Z,4.35
2022-10-09T02:34:25.845Z,4.33
2022-10-09T02:36:55.308Z,4.59
2022-10-09T02:39:23.025Z,4.37
2022-10-09T02:41:50.651Z,4.14
2022-10-09T02:44:18.305Z,4.36
2022-10-09T02:46:46.135Z,4.04
2022-10-09T02:49:16.061Z,4.25
2022-10-09T02:51:44.884Z,4.11
2022-10-09T02:54:13.009Z,4.15
2022-10-09T02:56:42.005Z,4.13
2022-10-09T02:59:09.899Z,4.22
2022-10-09T03:01:37.592Z,4.25
2022-10-09T03:04:05.473Z,4.10
2022-10-09T03:06:35.726Z,3.85
2022-10-09T03:09:04.694Z,4.11
2022-10-09T03:11:32.332Z,4.22
2022-10-09T03:14:00.528Z,4.01
2022-10-09T03:16:28.786Z,3.99
2022-10-09T03:18:56.549Z,3.87
2022-10-09T03:21:26.756Z,3.90
2022-10-09T03:23:56.899Z,3.69
2022-10-09T03:26:26.626Z,3.80
2022-10-09T03:28:55.478Z,3.77
2022-10-09T03:34:13.993Z,3.92
2022-10-09T03:36:42.223Z,3.84
2022-10-09T03:39:11.726Z,3.71
2022-10-09T03:41:41.296Z,3.89
2022-10-09T03:44:09.401Z,3.72
2022-10-09T03:46:37.800Z,3.74
2022-10-09T03:49:05.981Z,3.76
2022-10-09T03:51:33.840Z,3.56
2022-10-09T03:54:02.406Z,3.62
2022-10-09T03:56:32.096Z,3.45
2022-10-09T03:59:01.062Z,3.57
2022-10-09T04:01:28.957Z,3.70
2022-10-09T04:03:57.735Z,3.60
2022-10-09T04:06:27.341Z,3.51
2022-10-09T04:08:55.004Z,3.60
2022-10-09T04:11:23.682Z,3.71
2022-10-09T04:13:52.737Z,3.50
2022-10-09T04:16:21.319Z,3.58
2022-10-09T04:18:48.930Z,3.27
2022-10-09T04:21:16.581Z,3.24
2022-10-09T04:23:44.277Z,3.33
2022-10-09T04:26:12.738Z,3.21
2022-10-09T04:28:41.081Z,3.30
2022-10-09T04:31:11.209Z,3.24
2022-10-09T04:33:38.917Z,3.12
2022-10-09T04:36:08.367Z,3.03
2022-10-09T04:38:36.430Z,3.25
2022-10-09T04:41:05.906Z,3.21
2022-10-09T04:43:34.612Z,3.18
2022-10-09T04:46:05.232Z,3.07
2022-10-09T04:48:38.799Z,3.08
2022-10-09T04:51:08.102Z,3.13
2022-10-09T04:53:36.856Z,2.93
2022-10-09T04:56:06.183Z,2.96
2022-10-09T04:58:35.439Z,3.03
2022-10-09T05:01:07.599Z,3.11
2022-10-09T05:03:38.724Z,3.14
2022-10-09T05:06:08.744Z,3.04
2022-10-09T05:08:37.756Z,2.97
2022-10-09T05:11:09.300Z,3.01
2022-10-09T05:13:39.071Z,2.95
2022-10-09T05:16:11.127Z,3.01
2022-10-09T05:18:46.290Z,3.14
2022-10-09T05:21:14.559Z,3.11
2022-10-09T05:23:42.377Z,2.83
2022-10-09T05:26:13.702Z,2.73
2022-10-09T05:28:41.747Z,2.65
2022-10-09T05:31:10.159Z,2.74
2022-10-09T05:33:37.850Z,2.80
2022-10-09T05:36:07.903Z,2.81
2022-10-09T05:38:35.724Z,3.06
2022-10-09T05:41:05.833Z,3.01
2022-10-09T05:43:36.098Z,2.86
2022-10-09T05:46:08.685Z,3.14
2022-10-09T05:48:38.697Z,2.88
2022-10-09T05:51:13.801Z,2.77
2022-10-09T05:53:43.381Z,2.68
2022-10-09T05:56:16.591Z,2.85
2022-10-09T05:58:45.634Z,2.71
2022-10-09T06:01:15.193Z,2.78
2022-10-09T06:03:43.023Z,2.87
2022-10-09T06:06:12.180Z,3.00
2022-10-09T06:08:40.197Z,2.80
2022-10-09T06:11:13.016Z,2.94
2022-10-09T06:13:41.887Z,2.99
2022-10-09T06:16:11.488Z,2.97
2022-10-09T06:18:40.818Z,3.05
2022-10-09T06:21:09.208Z,3.28
2022-10-09T06:23:38.982Z,3.15
2022-10-09T06:26:09.436Z,3.29
2022-10-09T06:28:38.516Z,3.22
2022-10-09T06:31:07.655Z,3.39
2022-10-09T06:33:37.018Z,3.51
2022-10-09T06:36:10.187Z,3.70
2022-10-09T06:38:40.901Z,3.65
2022-10-09T06:41:10.144Z,3.62
2022-10-09T06:43:38.119Z,3.64
2022-10-09T06:46:09.359Z,3.67
2022-10-09T06:48:38.575Z,3.88
2022-10-09T06:51:08.528Z,3.85
2022-10-09T06:53:37.638Z,4.14
2022-10-09T06:56:08.567Z,4.21
2022-10-09T06:58:37.438Z,4.21
2022-10-09T07:01:10.059Z,4.33
2022-10-09T07:03:39.357Z,4.29
2022-10-09T07:06:08.674Z,4.31
2022-10-09T07:08:37.561Z,4.37
2022-10-09T07:11:15.563Z,4.43
2022-10-09T07:13:44.755Z,4.49
2022-10-09T07:16:13.032Z,4.67
2022-10-09T07:18:46.200Z,4.82
2022-10-09T07:21:13.901Z,4.87
2022-10-09T07:23:41.718Z,4.97
2022-10-09T07:26:14.473Z,5.04
2022-10-09T07:28:43.325Z,5.24
2022-10-09T07:31:11.930Z,5.28
2022-10-09T07:33:40.177Z,5.30
2022-10-09T07:36:08.248Z,5.47
2022-10-09T07:38:35.784Z,5.51
2022-10-09T07:41:05.132Z,5.82
2022-10-09T07:43:35.964Z,5.70
2022-10-09T07:46:05.396Z,5.83
2022-10-09T07:48:35.071Z,5.96
2022-10-09T07:51:08.943Z,6.02
2022-10-09T07:53:37.576Z,5.95
2022-10-09T07:56:05.845Z,6.11
2022-10-09T07:58:35.360Z,6.17
2022-10-09T08:01:11.769Z,6.46
2022-10-09T08:03:42.399Z,6.28
2022-10-09T08:06:10.666Z,6.51
2022-10-09T08:08:38.495Z,6.99
2022-10-09T08:11:10.348Z,6.75
2022-10-09T08:13:40.169Z,6.73
2022-10-09T08:16:08.260Z,6.95
2022-10-09T08:18:36.760Z,7.10
2022-10-09T08:21:06.723Z,7.08
2022-10-09T08:24:38.657Z,7.17
2022-10-09T08:27:07.520Z,7.32
2022-10-09T08:29:40.061Z,7.31
2022-10-09T08:32:09.110Z,7.56
2022-10-09T08:34:36.767Z,7.55
2022-10-09T08:37:04.615Z,7.67
2022-10-09T08:39:32.496Z,7.78
2022-10-09T08:42:03.517Z,7.98
2022-10-09T08:44:38.161Z,8.18
2022-10-09T08:47:09.681Z,8.20
2022-10-09T08:49:42.638Z,8.36
2022-10-09T08:52:26.437Z,8.46
2022-10-09T08:54:57.212Z,8.42
2022-10-09T08:57:30.466Z,8.63
2022-10-09T08:59:59.469Z,8.51
2022-10-09T09:02:37.365Z,8.71
2022-10-09T09:05:16.635Z,8.82
2022-10-09T09:07:51.292Z,9.18
2022-10-09T09:10:25.800Z,8.92
2022-10-09T09:12:56.810Z,9.02
2022-10-09T09:15:36.932Z,9.19
2022-10-09T09:21:49.759Z,9.27
2022-10-09T09:24:20.388Z,9.59
2022-10-09T09:26:50.447Z,9.62
2022-10-09T09:29:22.973Z,9.66
2022-10-09T09:31:58.277Z,9.75
2022-10-09T09:34:37.900Z,9.83
2022-10-09T09:37:05.844Z,9.95
2022-10-09T09:40:30.888Z,10.15
2022-10-09T09:42:27.755Z,10.27
2022-10-09T09:44:58.986Z,10.48
2022-10-09T09:47:34.764Z,10.27
2022-10-09T09:50:04.518Z,10.54
2022-10-09T09:52:36.093Z,10.46
2022-10-09T09:55:04.997Z,10.74
2022-10-09T09:57:36.587Z,10.87
2022-10-09T10:00:20.553Z,10.99
2022-10-09T10:02:50.765Z,11.26
2022-10-09T10:05:24.368Z,10.85
2022-10-09T10:07:56.522Z,11.15
2022-10-09T10:10:27.100Z,11.20
2022-10-09T10:12:56.856Z,11.36
2022-10-09T10:15:26.776Z,11.46
2022-10-09T10:18:03.901Z,11.48
2022-10-09T10:20:32.984Z,11.82
2022-10-09T10:23:02.006Z,12.29
2022-10-09T10:25:37.778Z,12.00
2022-10-09T10:28:09.587Z,12.28
2022-10-09T10:30:42.430Z,12.19
2022-10-09T10:33:19.765Z,12.40
2022-10-09T10:35:51.341Z,12.40
2022-10-09T10:38:22.493Z,12.34
2022-10-09T10:40:54.002Z,12.66
2022-10-09T10:43:30.887Z,13.09
2022-10-09T11:01:22.469Z,13.46
2022-10-09T11:04:12.638Z,13.40
2022-10-09T11:06:46.140Z,13.63
2022-10-09T11:09:17.670Z,13.67
2022-10-09T11:11:50.146Z,13.56
2022-10-09T11:14:29.565Z,14.24
2022-10-09T11:17:02.305Z,13.90
2022-10-09T11:19:50.526Z,13.98
2022-10-09T11:22:29.557Z,14.28
2022-10-09T11:25:05.044Z,14.07
2022-10-09T11:27:39.276Z,14.22
2022-10-09T11:30:10.707Z,13.71
2022-10-09T11:35:16.200Z,14.18
2022-10-09T11:37:44.916Z,14.62
2022-10-09T11:40:16.004Z,14.25
2022-10-09T11:42:43.951Z,14.38
2022-10-09T11:45:21.991Z,14.53
2022-10-09T11:47:57.564Z,14.90
2022-10-09T11:50:41.054Z,14.87
2022-10-09T11:53:12.015Z,14.88
2022-10-09T11:55:40.762Z,15.33
2022-10-09T11:58:14.850Z,15.06
2022-10-09T12:00:43.237Z,15.38
2022-10-09T12:03:25.104Z,15.12
2022-10-09T12:06:08.041Z,15.09
2022-10-09T12:08:35.752Z,15.48
2022-10-09T12:11:11.796Z,15.26
2022-10-09T12:13:46.896Z,15.36
2022-10-09T12:16:36.689Z,15.27
2022-10-09T12:19:07.383Z,15.13
2022-10-09T12:21:39.524Z,15.53
2022-10-09T12:24:08.172Z,15.45
2022-10-09T12:26:36.518Z,15.82
2022-10-09T12:29:05.213Z,15.54
2022-10-09T12:31:34.665Z,15.79
2022-10-09T12:34:04.942Z,16.01
2022-10-09T12:40:18.759Z,16.14
2022-10-09T12:42:47.338Z,16.05
2022-10-09T12:45:18.067Z,16.53
2022-10-09T12:47:45.859Z,16.32
2022-10-09T12:50:27.564Z,16.40
2022-10-09T12:52:58.415Z,16.43
2022-10-09T12:55:30.480Z,16.50
2022-10-09T12:58:03.254Z,16.98
2022-10-09T13:00:33.187Z,17.12
2022-10-09T13:03:01.595Z,16.59
2022-10-09T13:05:37.547Z,16.92
2022-10-09T13:08:05.868Z,16.73
2022-10-09T13:10:35.022Z,17.11
2022-10-09T13:13:06.502Z,17.51
2022-10-09T13:15:35.750Z,17.86
2022-10-09T13:18:14.700Z,18.87
2022-10-09T13:20:42.359Z,19.80
2022-10-09T13:23:28.632Z,20.49
2022-10-09T13:26:01.177Z,20.29
2022-10-09T13:28:31.679Z,21.01
2022-10-09T13:31:07.198Z,20.78
2022-10-09T13:33:35.326Z,21.23
2022-10-09T13:36:03.047Z,21.54
2022-10-09T13:38:34.826Z,21.49
2022-10-09T13:41:04.220Z,22.40
2022-10-09T13:43:32.549Z,22.57
2022-10-09T13:46:00.425Z,22.54
2022-10-09T13:48:29.484Z,21.75
2022-10-09T13:50:59.055Z,21.97
2022-10-09T13:53:27.393Z,21.49
2022-10-09T13:56:00.052Z,22.19
2022-10-09T13:58:31.161Z,22.23
2022-10-09T14:00:59.191Z,23.61
2022-10-09T14:03:26.991Z,22.21
2022-10-09T14:05:58.868Z,22.71
2022-10-09T14:08:26.590Z,23.64
2022-10-09T14:10:54.713Z,23.95
2022-10-09T14:13:22.400Z,24.06
2022-10-09T14:15:52.992Z,23.98
2022-10-09T14:18:20.969Z,23.27
2022-10-09T14:20:49.419Z,23.97
2022-10-09T14:23:17.122Z,24.54
2022-10-09T14:25:44.704Z,23.67
2022-10-09T14:28:12.738Z,22.17
2022-10-09T14:30:41.285Z,22.84
2022-10-09T14:33:10.324Z,23.78
2022-10-09T14:35:38.449Z,21.98
2022-10-09T14:38:06.156Z,23.22
2022-10-09T14:40:33.781Z,23.86
2022-10-09T14:43:01.664Z,24.44
2022-10-09T14:45:29.871Z,24.19
2022-10-09T14:47:57.952Z,23.47
2022-10-09T14:50:27.167Z,23.25
2022-10-09T14:52:55.084Z,23.80
2022-10-09T14:55:22.738Z,22.39
2022-10-09T14:57:50.353Z,22.94
2022-10-09T15:00:18.152Z,22.83
2022-10-09T15:02:45.891Z,21.52
2022-10-09T15:05:13.515Z,20.82
2022-10-09T15:07:42.605Z,21.74
2022-10-09T15:10:10.865Z,20.89
2022-10-09T15:12:38.557Z,21.03
2022-10-09T15:15:06.660Z,21.98
2022-10-09T15:17:34.295Z,22.71
2022-10-09T15:20:01.920Z,20.51
2022-10-09T15:22:29.582Z,21.06
2022-10-09T15:24:58.676Z,20.58
2022-10-09T15:27:27.480Z,18.88
2022-10-09T15:29:55.082Z,20.90
2022-10-09T15:32:22.720Z,21.66
2022-10-09T15:34:50.470Z,20.41
2022-10-09T15:38:22.504Z,19.89
2022-10-09T15:40:53.452Z,20.06
2022-10-09T15:43:23.281Z,18.90
2022-10-09T15:45:51.525Z,17.41
2022-10-09T15:48:21.052Z,16.79
2022-10-09T15:50:51.670Z,16.36
2022-10-09T15:53:21.056Z,15.97
2022-10-09T15:55:52.474Z,15.85
2022-10-09T15:58:20.444Z,14.65
2022-10-09T16:00:50.064Z,14.72
2022-10-09T16:03:19.008Z,14.64
2022-10-09T16:05:48.799Z,14.58
2022-10-09T16:08:17.514Z,14.00
2022-10-09T16:10:48.846Z,13.76
2022-10-09T16:13:19.208Z,13.60
2022-10-09T16:15:51.655Z,13.32
2022-10-09T16:18:21.104Z,13.03
2022-10-09T16:20:49.246Z,12.64
2022-10-09T16:23:18.576Z,12.48
2022-10-09T16:25:57.360Z,12.41
2022-10-09T16:28:26.980Z,12.08
2022-10-09T16:30:54.863Z,11.70
2022-10-09T16:33:26.696Z,12.12
2022-10-09T16:35:54.627Z,11.62
2022-10-09T16:38:22.631Z,11.67
2022-10-09T16:41:01.861Z,11.37
2022-10-09T16:43:34.746Z,11.36
2022-10-09T16:46:13.919Z,10.95
2022-10-09T16:48:41.621Z,10.89
2022-10-09T16:51:10.948Z,10.75
2022-10-09T16:53:38.984Z,10.76
2022-10-09T16:56:12.799Z,10.54
2022-10-09T16:58:43.567Z,10.54
2022-10-09T17:01:12.399Z,10.54
2022-10-09T17:03:41.443Z,10.33
2022-10-09T17:06:10.615Z,10.00
2022-10-09T17:08:38.488Z,9.86
2022-10-09T17:11:08.252Z,9.76
2022-10-09T17:13:35.855Z,9.41
2022-10-09T17:16:07.531Z,9.58
2022-10-09T17:18:36.053Z,9.37
2022-10-09T17:21:04.438Z,9.33
2022-10-09T17:23:36.423Z,9.47
2022-10-09T17:26:06.637Z,9.26
2022-10-09T17:28:35.374Z,9.35
2022-10-09T17:31:10.556Z,9.21
2022-10-09T17:33:42.630Z,9.11
2022-10-09T17:36:10.345Z,9.18
2022-10-09T17:38:38.525Z,8.83
2022-10-09T17:41:08.160Z,9.14
2022-10-09T17:43:39.848Z,8.78
2022-10-09T17:46:10.334Z,8.76
2022-10-09T17:48:43.981Z,8.81
2022-10-09T17:51:16.102Z,8.40
2022-10-09T17:53:44.097Z,8.79
2022-10-09T17:56:13.241Z,9.04
2022-10-09T17:58:41.278Z,8.96
2022-10-09T18:01:12.113Z,8.91
2022-10-09T18:03:39.985Z,8.90
2022-10-09T18:06:09.454Z,8.77
2022-10-09T18:08:38.198Z,8.53
2022-10-09T18:11:10.673Z,8.30
2022-10-09T18:13:41.942Z,8.55
2022-10-09T18:16:13.382Z,8.37
2022-10-09T18:18:41.796Z,8.30
2022-10-09T18:21:14.770Z,8.26
2022-10-09T18:23:42.649Z,8.47
2022-10-09T18:26:11.480Z,8.13
2022-10-09T18:28:41.771Z,8.30
2022-10-09T18:31:15.518Z,8.24
2022-10-09T18:33:43.683Z,8.36
2022-10-09T18:36:19.258Z,8.71
2022-10-09T18:38:48.648Z,8.80
2022-10-09T18:41:16.675Z,8.70
2022-10-09T18:43:45.474Z,8.74
2022-10-09T18:46:19.391Z,8.87
2022-10-09T18:48:47.635Z,8.51
2022-10-09T18:51:17.571Z,8.69
2022-10-09T18:53:50.015Z,8.50
2022-10-09T18:56:19.208Z,8.54
2022-10-09T18:58:48.311Z,8.46
2022-10-09T19:01:21.230Z,8.34
2022-10-09T19:03:50.312Z,8.38
2022-10-09T19:06:19.490Z,8.34
2022-10-09T19:08:48.994Z,8.43
2022-10-09T19:11:17.711Z,8.42
2022-10-09T19:13:46.229Z,8.29
2022-10-09T19:16:14.004Z,8.32
2022-10-09T19:18:43.060Z,8.16
2022-10-09T19:21:14.224Z,8.04
2022-10-09T19:23:41.940Z,8.08
2022-10-09T19:26:13.002Z,8.26
2022-10-09T19:28:41.435Z,8.09
2022-10-09T19:31:11.138Z,8.17
2022-10-09T19:33:44.671Z,8.16
2022-10-09T19:36:13.309Z,8.08
2022-10-09T19:38:42.152Z,8.16
2022-10-09T19:41:12.667Z,8.24
2022-10-09T19:43:41.059Z,8.04
2022-10-09T19:46:11.042Z,7.97
2022-10-09T19:48:40.703Z,7.74
2022-10-09T19:51:18.207Z,7.83
2022-10-09T19:53:46.430Z,7.54
2022-10-09T19:56:16.064Z,8.28
2022-10-09T19:58:49.347Z,7.71
2022-10-09T20:02:18.266Z,7.58
2022-10-09T20:04:52.426Z,7.53
2022-10-09T20:07:22.064Z,7.56
2022-10-09T20:09:49.658Z,7.52
2022-10-09T20:12:17.787Z,7.36
2022-10-09T20:14:45.879Z,7.28
2022-10-09T20:17:14.656Z,7.29
2022-10-09T20:19:45.751Z,7.56
2022-10-09T20:22:14.111Z,7.50
2022-10-09T20:24:43.240Z,7.24
2022-10-09T20:27:11.262Z,7.31
2022-10-09T20:29:39.131Z,7.33
2022-10-09T20:32:07.750Z,7.56
2022-10-09T20:34:35.412Z,7.30
2022-10-09T20:37:03.123Z,7.29
2022-10-09T20:39:31.263Z,7.17
2022-10-09T20:42:02.289Z,7.00
2022-10-09T20:44:30.356Z,6.97
2022-10-09T20:46:58.214Z,6.74
2022-10-09T20:49:26.065Z,6.53
2022-10-09T20:51:53.866Z,6.67
2022-10-09T20:54:22.814Z,6.58
2022-10-09T20:56:50.882Z,6.57
2022-10-09T20:59:20.089Z,6.66
2022-10-09T21:01:48.288Z,6.64
2022-10-09T21:04:17.559Z,6.57
2022-10-09T21:06:45.374Z,6.40
2022-10-09T21:09:13.602Z,6.59
2022-10-09T21:11:41.783Z,6.60
2022-10-09T21:14:11.281Z,6.51
2022-10-09T21:16:41.299Z,6.80
2022-10-09T21:19:09.232Z,6.49
2022-10-09T21:21:37.442Z,6.53
2022-10-09T21:24:07.715Z,6.59
2022-10-09T21:26:36.401Z,6.46
2022-10-09T21:29:05.274Z,6.65
2022-10-09T21:31:33.879Z,6.74
2022-10-09T21:34:03.684Z,6.57
2022-10-09T21:36:36.323Z,6.47
2022-10-09T21:39:05.447Z,6.46
2022-10-09T21:41:34.010Z,6.53
2022-10-09T21:44:02.759Z,6.68
2022-10-09T21:46:31.397Z,6.26
2022-10-09T21:49:03.248Z,6.20
2022-10-09T21:51:36.031Z,6.29
2022-10-09T21:54:03.796Z,6.22
2022-10-09T21:56:32.602Z,6.19
2022-10-09T21:59:00.710Z,6.18
2022-10-09T22:01:29.140Z,6.20
2022-10-09T22:05:00.870Z,6.20
2022-10-09T22:07:30.644Z,6.19
2022-10-09T22:09:58.457Z,6.22
2022-10-09T22:12:26.063Z,6.21
2022-10-09T22:14:54.580Z,5.90
2022-10-09T22:17:22.212Z,5.81
2022-10-09T22:19:49.871Z,6.12
2022-10-09T22:22:17.605Z,6.05
2022-10-09T22:24:47.413Z,6.00
2022-10-09T22:27:15.283Z,5.99
2022-10-09T22:29:44.019Z,5.81
2022-10-09T22:32:12.484Z,5.91
2022-10-09T22:34:40.485Z,5.82
2022-10-09T22:37:08.094Z,5.69
2022-10-09T22:39:37.330Z,5.69
2022-10-09T22:42:06.748Z,5.87
2022-10-09T22:44:34.581Z,5.86
2022-10-09T22:47:02.184Z,5.76
2022-10-09T22:49:29.871Z,5.78
2022-10-09T22:51:58.284Z,5.67
2022-10-09T22:54:26.342Z,5.67
2022-10-09T22:56:54.036Z,5.44
2022-10-09T22:59:23.131Z,5.52
2022-10-09T23:01:53.382Z,5.50
2022-10-09T23:04:22.445Z,5.60
2022-10-09T23:06:51.670Z,5.34
2022-10-09T23:09:21.540Z,5.41
2022-10-09T23:11:49.419Z,5.40
2022-10-09T23:14:18.100Z,5.43
2022-10-09T23:16:49.489Z,5.38
2022-10-09T23:19:17.899Z,5.35
2022-10-09T23:21:46.602Z,5.29
2022-10-09T23:24:18.120Z,5.32
2022-10-09T23:26:46.930Z,5.37
2022-10-09T23:29:16.634Z,5.27
2022-10-09T23:31:45.272Z,5.39
2022-10-09T23:34:14.301Z,5.12
2022-10-09T23:36:42.989Z,5.05
2022-10-09T23:39:10.948Z,5.30
2022-10-09T23:41:39.303Z,5.28
2022-10-09T23:44:07.241Z,5.15
2022-10-09T23:46:37.542Z,5.25
2022-10-09T23:49:06.232Z,5.11
2022-10-09T23:51:38.069Z,5.12
2022-10-09T23:54:07.124Z,5.24
2022-10-09T23:56:36.380Z,5.34
2022-10-09T23:59:06.495Z,5.01
